Portada
METAR-TAF:

METAR-TAF

Aeroports :

Arauca, Colòmbia

latitud: 07-04N, longitud: 070-44W, altitud: 128 m

Observació

L'informe es va fer fa 52 minuts, a les 13:00 UTC
Vent 4 kt del Nord
Temperatura 27°C
Humitat 89%
Pressió 1014 hPa
Visibilitat 10 km o més
Núvols disperses a una alçada de 2000 ft
Núvols disperses a una alçada de 20000 ft

METAR: SKUC 211300Z 35004KT 9999 SCT020 SCT200 27/25 A2993

Hora: 08:52 (13:52 UTC)


TAF: manca

Observacions i pronòstics meteorològics de més de 4000 aeroports (METAR i TAF).

Les estacions disponibles són els punts grocs i vermells al mapa.

Posi el ratolí al punt desitjat per veure el nom de l'estació.

Feu clic per veure les observacions i els pronòstics meteorològics.

Per canviar el mapa: feu clic els botons verds amb una creu de color negre per apropar; al botó verd amb un guió per allunyar la imatge; o en les fletxes verdes per a mapes adjacents.


METAR-TAF: